Time;durP1;ratioP1;P1;durP2;ratioP2;P2;SDS_P1;SDS_P2;PMS_P1;PMS_P2;Temp;Humidity;BMP_temperature;BMP_pressure;BME280_temperature;BME280_humidity;BME280_pressure;Samples;Min_cycle;Max_cycle;Signal;HPM_P1;HPM_P2
2024/01/20 00:02:29;;;;;;;9.02;8.02;;;;;;;;;;10095098;28;20094;-61
2024/01/20 00:07:30;;;;;;;6.18;5.60;;;;;;;;;;10092146;28;20098;-62
2024/01/20 00:12:30;;;;;;;6.35;5.00;;;;;;;;;;10092422;28;20085;-61
2024/01/20 00:17:28;;;;;;;8.98;6.88;;;;;;;;;;10092053;28;20073;-62
2024/01/20 00:22:28;;;;;;;5.30;4.78;;;;;;;;;;10093001;28;20069;-62
2024/01/20 00:27:27;;;;;;;5.55;5.05;;;;;;;;;;10092267;28;20078;-61
2024/01/20 00:32:25;;;;;;;6.63;5.05;;;;;;;;;;10091799;28;20081;-61
2024/01/20 00:37:24;;;;;;;5.45;4.30;;;;;;;;;;10104987;28;20501;-62
2024/01/20 00:42:23;;;;;;;4.20;3.90;;;;;;;;;;10093762;28;20063;-63
2024/01/20 00:47:21;;;;;;;4.43;4.03;;;;;;;;;;10091763;28;20519;-62
2024/01/20 00:52:20;;;;;;;4.00;3.60;;;;;;;;;;10105405;28;20604;-62
2024/01/20 00:57:18;;;;;;;5.03;4.47;;;;;;;;;;10091912;28;20082;-62
2024/01/20 01:02:18;;;;;;;3.10;2.88;;;;;;;;;;10090036;28;20086;-62
2024/01/20 01:07:17;;;;;;;3.35;3.05;;;;;;;;;;10096445;28;20513;-62
2024/01/20 01:12:15;;;;;;;3.55;3.17;;;;;;;;;;10096671;28;20077;-62
2024/01/20 01:17:14;;;;;;;3.85;3.50;;;;;;;;;;10091717;28;20086;-62
2024/01/20 01:22:13;;;;;;;3.05;2.60;;;;;;;;;;10096991;28;20461;-63
2024/01/20 01:27:12;;;;;;;3.72;3.42;;;;;;;;;;10098793;28;20516;-61
2024/01/20 01:32:10;;;;;;;4.10;3.75;;;;;;;;;;10112135;28;20047;-63
2024/01/20 01:37:09;;;;;;;3.70;3.38;;;;;;;;;;10102480;28;20100;-63
2024/01/20 01:42:08;;;;;;;3.60;3.33;;;;;;;;;;10097828;28;20089;-63
2024/01/20 01:47:07;;;;;;;3.63;3.33;;;;;;;;;;10090665;28;20082;-62
2024/01/20 01:52:06;;;;;;;4.65;4.22;;;;;;;;;;10098172;28;20469;-62
2024/01/20 01:57:05;;;;;;;5.13;4.35;;;;;;;;;;10096411;28;20099;-62
2024/01/20 02:02:05;;;;;;;4.47;4.03;;;;;;;;;;10096402;28;20092;-62
2024/01/20 02:07:04;;;;;;;3.97;3.58;;;;;;;;;;10097154;28;20070;-62
2024/01/20 02:12:03;;;;;;;5.45;4.65;;;;;;;;;;10096060;28;20520;-61
2024/01/20 02:17:01;;;;;;;4.75;4.22;;;;;;;;;;10096501;28;20059;-62
2024/01/20 02:22:01;;;;;;;5.90;4.68;;;;;;;;;;10094914;28;20473;-62
2024/01/20 02:27:01;;;;;;;5.35;4.85;;;;;;;;;;10096040;28;20078;-63
2024/01/20 02:31:59;;;;;;;4.78;4.25;;;;;;;;;;10095265;28;20517;-63
2024/01/20 02:36:57;;;;;;;5.13;4.72;;;;;;;;;;10095207;28;20170;-62
2024/01/20 02:41:55;;;;;;;4.85;4.25;;;;;;;;;;10096354;28;20078;-62
2024/01/20 02:46:56;;;;;;;7.13;4.50;;;;;;;;;;10093816;28;20071;-63
2024/01/20 02:51:54;;;;;;;5.55;4.25;;;;;;;;;;10092477;28;20516;-62
2024/01/20 02:56:53;;;;;;;5.05;4.43;;;;;;;;;;10091417;28;20071;-63
2024/01/20 03:01:51;;;;;;;5.70;4.13;;;;;;;;;;10092588;28;20465;-63
2024/01/20 03:06:52;;;;;;;4.72;4.25;;;;;;;;;;10095507;28;20474;-63
2024/01/20 03:11:50;;;;;;;5.68;4.88;;;;;;;;;;10095267;28;20077;-62
2024/01/20 03:16:48;;;;;;;4.35;3.95;;;;;;;;;;10093795;28;20070;-63
2024/01/20 03:21:46;;;;;;;4.40;3.60;;;;;;;;;;10092998;28;20070;-63
2024/01/20 03:26:46;;;;;;;4.22;3.88;;;;;;;;;;10094800;28;20085;-62
2024/01/20 03:31:45;;;;;;;9.30;7.13;;;;;;;;;;10092983;28;20098;-63
2024/01/20 03:36:43;;;;;;;8.77;6.45;;;;;;;;;;10091145;28;20078;-62
2024/01/20 03:41:41;;;;;;;5.57;5.07;;;;;;;;;;10091793;28;20066;-61
2024/01/20 03:46:41;;;;;;;6.43;5.45;;;;;;;;;;10084457;28;20078;-62
2024/01/20 03:51:39;;;;;;;7.22;5.43;;;;;;;;;;10086667;28;20070;-62
2024/01/20 03:56:42;;;;;;;4.50;4.10;;;;;;;;;;10087141;28;20071;-62
2024/01/20 04:01:41;;;;;;;4.30;3.90;;;;;;;;;;10086479;28;20496;-62
2024/01/20 04:06:40;;;;;;;5.68;5.05;;;;;;;;;;10088350;28;20078;-63
2024/01/20 04:11:38;;;;;;;4.72;4.32;;;;;;;;;;10091711;28;20078;-63
2024/01/20 04:16:37;;;;;;;5.95;5.43;;;;;;;;;;10091742;28;20561;-63
2024/01/20 04:21:37;;;;;;;7.35;6.38;;;;;;;;;;10092702;28;20080;-62
2024/01/20 04:26:35;;;;;;;6.35;5.75;;;;;;;;;;10091671;28;20093;-63
2024/01/20 04:31:33;;;;;;;5.05;4.53;;;;;;;;;;10091527;28;20074;-63
2024/01/20 04:36:31;;;;;;;4.25;3.85;;;;;;;;;;10091377;28;20478;-63
2024/01/20 04:41:31;;;;;;;6.57;5.78;;;;;;;;;;10091741;28;20089;-63
2024/01/20 04:46:29;;;;;;;4.75;4.25;;;;;;;;;;10092953;28;20083;-63
2024/01/20 04:51:27;;;;;;;5.43;4.93;;;;;;;;;;10090703;28;20066;-63
2024/01/20 04:56:26;;;;;;;4.78;4.28;;;;;;;;;;10096133;28;20069;-63
2024/01/20 05:01:25;;;;;;;6.20;5.05;;;;;;;;;;10099123;28;20074;-62
2024/01/20 05:06:23;;;;;;;5.97;5.38;;;;;;;;;;10102517;28;20373;-62
2024/01/20 05:11:22;;;;;;;6.25;5.65;;;;;;;;;;10100229;28;20493;-62
2024/01/20 05:16:20;;;;;;;6.05;5.03;;;;;;;;;;10098958;28;20078;-62
2024/01/20 05:21:20;;;;;;;5.38;4.82;;;;;;;;;;10098686;28;20067;-61
2024/01/20 05:26:18;;;;;;;6.57;5.95;;;;;;;;;;10097948;28;20082;-61
2024/01/20 05:31:17;;;;;;;5.70;5.20;;;;;;;;;;10095864;28;20070;-62
2024/01/20 05:36:15;;;;;;;7.63;5.88;;;;;;;;;;10099834;28;20461;-61
2024/01/20 05:41:14;;;;;;;6.47;5.85;;;;;;;;;;10098654;28;20062;-62
2024/01/20 05:46:13;;;;;;;5.75;5.25;;;;;;;;;;10102491;28;20478;-62
2024/01/20 05:51:11;;;;;;;6.00;5.38;;;;;;;;;;10101405;28;20089;-63
2024/01/20 05:56:09;;;;;;;5.25;4.72;;;;;;;;;;10089588;28;20071;-62
2024/01/20 06:01:10;;;;;;;5.22;4.63;;;;;;;;;;10101287;28;20074;-61
2024/01/20 06:06:09;;;;;;;6.15;5.38;;;;;;;;;;10096191;28;20516;-62
2024/01/20 06:11:09;;;;;;;6.40;5.80;;;;;;;;;;10095296;28;20062;-62
2024/01/20 06:16:07;;;;;;;5.78;5.20;;;;;;;;;;10096864;28;20097;-62
2024/01/20 06:21:08;;;;;;;5.65;5.15;;;;;;;;;;10100042;28;20084;-61
2024/01/20 06:26:06;;;;;;;6.72;6.03;;;;;;;;;;10098389;28;20081;-62
2024/01/20 06:31:04;;;;;;;5.82;5.20;;;;;;;;;;10098344;28;20070;-61
2024/01/20 06:36:03;;;;;;;8.43;4.80;;;;;;;;;;10098806;28;20073;-60
2024/01/20 06:41:02;;;;;;;6.95;5.68;;;;;;;;;;10101259;28;20523;-62
2024/01/20 06:46:01;;;;;;;5.85;5.30;;;;;;;;;;10099835;28;20061;-61
2024/01/20 06:51:00;;;;;;;7.15;6.45;;;;;;;;;;10099891;28;20082;-61
2024/01/20 06:55:58;;;;;;;8.85;7.82;;;;;;;;;;10097848;28;20081;-61
2024/01/20 07:00:58;;;;;;;8.02;7.30;;;;;;;;;;10095501;28;20070;-61
2024/01/20 07:05:58;;;;;;;6.95;6.25;;;;;;;;;;10094902;28;20095;-62
2024/01/20 07:10:56;;;;;;;6.72;6.13;;;;;;;;;;10089057;28;20073;-63
2024/01/20 07:15:54;;;;;;;9.05;7.82;;;;;;;;;;10089810;28;20101;-62
2024/01/20 07:20:54;;;;;;;7.55;5.80;;;;;;;;;;10096252;28;20122;-60
2024/01/20 07:25:52;;;;;;;6.30;5.55;;;;;;;;;;10091737;28;20509;-62
2024/01/20 07:30:51;;;;;;;6.25;5.43;;;;;;;;;;10093946;28;20508;-60
2024/01/20 07:35:49;;;;;;;6.47;5.85;;;;;;;;;;10097197;28;20071;-62
2024/01/20 07:40:48;;;;;;;6.72;6.13;;;;;;;;;;10095109;28;20075;-62
2024/01/20 07:45:47;;;;;;;7.65;6.88;;;;;;;;;;10094234;28;20070;-63
2024/01/20 07:50:45;;;;;;;9.52;8.52;;;;;;;;;;10094466;28;20169;-63
2024/01/20 07:55:43;;;;;;;7.45;6.57;;;;;;;;;;10094599;28;20070;-63
2024/01/20 08:00:43;;;;;;;8.13;7.13;;;;;;;;;;10094702;28;20547;-64
2024/01/20 08:05:41;;;;;;;7.63;6.63;;;;;;;;;;10096085;28;20499;-63
2024/01/20 08:10:39;;;;;;;9.07;7.28;;;;;;;;;;10094919;28;20078;-61
2024/01/20 08:15:38;;;;;;;7.82;7.03;;;;;;;;;;10094342;28;20078;-61
2024/01/20 08:20:38;;;;;;;7.32;5.68;;;;;;;;;;10093113;28;20070;-62
2024/01/20 08:25:36;;;;;;;8.65;7.70;;;;;;;;;;10094709;28;20503;-62
2024/01/20 08:30:34;;;;;;;9.40;8.60;;;;;;;;;;10105560;28;20733;-62
2024/01/20 08:35:34;;;;;;;10.40;8.88;;;;;;;;;;10106734;28;20090;-61
2024/01/20 08:40:34;;;;;;;9.70;8.15;;;;;;;;;;10095002;28;20074;-63
2024/01/20 08:45:33;;;;;;;8.95;7.65;;;;;;;;;;10093849;28;20117;-62
2024/01/20 08:50:31;;;;;;;11.77;10.48;;;;;;;;;;10093826;28;20078;-62
2024/01/20 08:55:30;;;;;;;10.68;9.68;;;;;;;;;;10095112;28;20078;-61
2024/01/20 09:00:29;;;;;;;14.55;12.50;;;;;;;;;;10094796;28;20517;-63
2024/01/20 09:05:28;;;;;;;14.60;10.80;;;;;;;;;;10094667;28;20067;-63
2024/01/20 09:10:36;;;;;;;20.63;15.27;;;;;;;;;;10090227;28;20090;-61
2024/01/20 09:15:36;;;;;;;19.20;12.63;;;;;;;;;;10095494;28;20107;-63
2024/01/20 09:20:34;;;;;;;11.30;8.73;;;;;;;;;;10098794;28;20066;-63
2024/01/20 09:25:33;;;;;;;10.48;8.38;;;;;;;;;;10097861;28;20090;-62
2024/01/20 09:30:31;;;;;;;15.52;13.35;;;;;;;;;;10099849;28;20081;-62
2024/01/20 09:35:31;;;;;;;12.68;9.18;;;;;;;;;;10097190;28;20093;-62
2024/01/20 09:40:32;;;;;;;14.35;11.23;;;;;;;;;;10099636;28;20075;-62
2024/01/20 09:45:31;;;;;;;19.00;16.77;;;;;;;;;;10099354;28;20080;-62
2024/01/20 09:50:30;;;;;;;16.92;13.65;;;;;;;;;;10098229;28;20090;-63
2024/01/20 09:55:29;;;;;;;10.43;9.38;;;;;;;;;;10098325;28;20070;-62
2024/01/20 10:00:28;;;;;;;14.57;11.50;;;;;;;;;;10096366;28;20066;-63
2024/01/20 10:05:29;;;;;;;20.50;16.42;;;;;;;;;;10099158;28;20085;-63
2024/01/20 10:10:31;;;;;;;16.08;13.23;;;;;;;;;;10091968;28;20077;-63
2024/01/20 10:15:30;;;;;;;16.85;13.00;;;;;;;;;;10087798;28;20563;-63
2024/01/20 10:20:35;;;;;;;17.33;12.77;;;;;;;;;;10093881;28;20082;-64
2024/01/20 10:25:35;;;;;;;13.68;9.57;;;;;;;;;;10093095;28;20966;-64
2024/01/20 10:30:34;;;;;;;17.15;12.18;;;;;;;;;;10092635;28;20070;-64
2024/01/20 10:35:32;;;;;;;21.25;14.82;;;;;;;;;;10094629;28;20086;-64
2024/01/20 10:40:30;;;;;;;32.70;22.13;;;;;;;;;;10092242;28;20089;-64
2024/01/20 10:45:33;;;;;;;21.13;17.05;;;;;;;;;;10095294;28;20081;-64
2024/01/20 10:50:32;;;;;;;40.97;24.27;;;;;;;;;;10094970;28;20689;-64
2024/01/20 10:55:31;;;;;;;30.95;19.30;;;;;;;;;;10094699;28;20083;-64
2024/01/20 11:00:31;;;;;;;12.70;10.18;;;;;;;;;;10095268;28;20442;-64
2024/01/20 11:05:29;;;;;;;21.83;17.40;;;;;;;;;;10094003;28;20074;-64
2024/01/20 11:10:28;;;;;;;19.55;15.52;;;;;;;;;;10094766;28;20509;-64
2024/01/20 11:15:28;;;;;;;43.25;28.58;;;;;;;;;;10087891;28;20509;-64
2024/01/20 11:20:29;;;;;;;22.13;17.10;;;;;;;;;;10096420;28;20074;-63
2024/01/20 11:25:32;;;;;;;20.83;15.73;;;;;;;;;;10091073;28;20512;-64
2024/01/20 11:30:31;;;;;;;20.38;15.75;;;;;;;;;;10090273;28;20479;-64
2024/01/20 11:35:30;;;;;;;18.02;14.35;;;;;;;;;;10095934;28;20074;-64
2024/01/20 11:40:29;;;;;;;16.35;12.63;;;;;;;;;;10091195;28;20071;-63
2024/01/20 11:45:27;;;;;;;15.55;13.02;;;;;;;;;;10090483;28;20066;-63
2024/01/20 11:50:25;;;;;;;14.02;11.35;;;;;;;;;;10090920;28;20077;-63
2024/01/20 11:55:26;;;;;;;18.38;12.88;;;;;;;;;;10093057;28;20105;-62
2024/01/20 12:00:24;;;;;;;17.75;13.40;;;;;;;;;;10091586;28;20074;-62
2024/01/20 12:05:22;;;;;;;24.15;16.60;;;;;;;;;;10092611;28;20081;-60
2024/01/20 12:10:21;;;;;;;27.15;20.23;;;;;;;;;;10100645;28;20086;-63
2024/01/20 12:15:20;;;;;;;18.05;13.75;;;;;;;;;;10099551;28;20493;-62
2024/01/20 12:20:19;;;;;;;19.73;15.27;;;;;;;;;;10100484;28;20075;-64
2024/01/20 12:25:17;;;;;;;32.72;20.92;;;;;;;;;;10100319;28;20066;-63
2024/01/20 12:30:16;;;;;;;21.35;17.52;;;;;;;;;;10099076;28;20066;-63
2024/01/20 12:35:15;;;;;;;23.40;19.45;;;;;;;;;;10092599;28;20466;-64
2024/01/20 12:40:14;;;;;;;25.52;19.88;;;;;;;;;;10096485;28;20062;-64
2024/01/20 12:45:12;;;;;;;26.85;22.20;;;;;;;;;;10099636;28;20066;-60
2024/01/20 12:50:10;;;;;;;16.33;13.48;;;;;;;;;;10098919;28;20074;-60
2024/01/20 12:55:11;;;;;;;17.75;13.68;;;;;;;;;;10100475;28;20078;-59
2024/01/20 13:00:10;;;;;;;23.02;17.33;;;;;;;;;;10099019;28;20114;-59
2024/01/20 13:05:09;;;;;;;25.70;19.63;;;;;;;;;;10097606;28;20631;-59
2024/01/20 13:10:08;;;;;;;27.92;20.65;;;;;;;;;;10095630;28;20505;-60
2024/01/20 13:15:08;;;;;;;32.08;25.00;;;;;;;;;;10095068;28;20078;-61
2024/01/20 13:20:09;;;;;;;27.88;22.58;;;;;;;;;;10098910;28;20084;-59
2024/01/20 13:25:08;;;;;;;19.95;15.48;;;;;;;;;;10101509;28;20453;-59
2024/01/20 13:30:08;;;;;;;75.07;55.03;;;;;;;;;;10107283;28;20073;-58
2024/01/20 13:35:07;;;;;;;26.27;23.38;;;;;;;;;;10098826;28;20146;-60
2024/01/20 13:40:08;;;;;;;21.50;18.38;;;;;;;;;;10096975;28;20063;-57
2024/01/20 13:45:08;;;;;;;35.85;27.98;;;;;;;;;;10101500;28;20562;-59
2024/01/20 13:50:07;;;;;;;22.55;17.98;;;;;;;;;;10100451;28;20085;-60
2024/01/20 13:55:06;;;;;;;21.88;16.60;;;;;;;;;;10099818;28;20536;-59
2024/01/20 14:00:05;;;;;;;27.42;18.05;;;;;;;;;;10098674;28;20078;-54
2024/01/20 14:05:05;;;;;;;19.67;15.68;;;;;;;;;;10103296;28;20129;-58
2024/01/20 14:10:05;;;;;;;20.65;16.88;;;;;;;;;;10101761;28;20154;-59
2024/01/20 14:15:04;;;;;;;27.58;21.02;;;;;;;;;;10103605;28;20075;-59
2024/01/20 14:20:02;;;;;;;26.33;19.42;;;;;;;;;;10107062;28;20082;-55
2024/01/20 14:25:03;;;;;;;24.17;17.73;;;;;;;;;;10098620;28;20069;-59
2024/01/20 14:30:06;;;;;;;23.63;17.45;;;;;;;;;;10099663;28;20074;-60
2024/01/20 14:35:05;;;;;;;25.33;18.23;;;;;;;;;;10098962;28;20070;-60
2024/01/20 14:40:06;;;;;;;35.55;27.77;;;;;;;;;;10100045;28;20090;-57
2024/01/20 14:45:06;;;;;;;70.68;47.33;;;;;;;;;;10103168;28;20172;-58
2024/01/20 14:50:06;;;;;;;250.38;121.25;;;;;;;;;;10105413;28;20104;-58
2024/01/20 14:55:07;;;;;;;105.15;78.22;;;;;;;;;;10093696;28;20071;-60
2024/01/20 15:00:08;;;;;;;67.60;48.35;;;;;;;;;;10093246;28;20083;-59
2024/01/20 15:05:07;;;;;;;42.30;32.97;;;;;;;;;;10093951;28;20129;-60
2024/01/20 15:10:07;;;;;;;35.60;28.10;;;;;;;;;;10098556;28;20067;-59
2024/01/20 15:15:06;;;;;;;35.28;27.30;;;;;;;;;;10094129;28;20086;-60
2024/01/20 15:20:04;;;;;;;41.22;30.90;;;;;;;;;;10095956;28;20077;-59
2024/01/20 15:25:03;;;;;;;61.45;39.88;;;;;;;;;;10098503;28;20079;-59
2024/01/20 15:30:03;;;;;;;72.40;50.67;;;;;;;;;;10095491;28;20153;-60
2024/01/20 15:35:01;;;;;;;57.65;41.22;;;;;;;;;;10093669;28;20067;-59
2024/01/20 15:39:59;;;;;;;62.95;42.55;;;;;;;;;;10100519;28;20066;-60
2024/01/20 15:44:58;;;;;;;73.32;48.35;;;;;;;;;;10095380;28;20078;-61
2024/01/20 15:49:58;;;;;;;57.60;40.55;;;;;;;;;;10092013;28;20130;-60
2024/01/20 15:54:56;;;;;;;99.15;65.03;;;;;;;;;;10095478;28;20070;-60
2024/01/20 15:59:54;;;;;;;62.47;41.30;;;;;;;;;;10101697;28;20550;-59
2024/01/20 16:04:53;;;;;;;50.15;35.25;;;;;;;;;;10100895;28;20603;-61
2024/01/20 16:09:52;;;;;;;40.08;30.13;;;;;;;;;;10097034;28;20625;-60
2024/01/20 16:14:51;;;;;;;116.45;62.78;;;;;;;;;;10096787;28;20082;-60
2024/01/20 16:19:49;;;;;;;53.80;34.03;;;;;;;;;;10094635;28;20567;-60
2024/01/20 16:24:47;;;;;;;29.67;22.52;;;;;;;;;;10101572;28;20063;-60
2024/01/20 16:29:47;;;;;;;30.55;23.52;;;;;;;;;;10098311;28;20074;-59
2024/01/20 16:34:45;;;;;;;42.75;33.08;;;;;;;;;;10099912;28;20082;-60
2024/01/20 16:39:44;;;;;;;29.17;22.35;;;;;;;;;;10098605;28;20509;-60
2024/01/20 16:44:42;;;;;;;39.83;29.20;;;;;;;;;;10098910;28;20089;-59
2024/01/20 16:49:42;;;;;;;45.90;31.42;;;;;;;;;;10102028;28;20066;-59
2024/01/20 16:54:41;;;;;;;32.92;22.92;;;;;;;;;;10107921;28;20118;-59
2024/01/20 16:59:39;;;;;;;45.60;33.90;;;;;;;;;;10103288;28;20105;-61
2024/01/20 17:04:37;;;;;;;47.63;31.75;;;;;;;;;;10101014;28;20560;-61
2024/01/20 17:09:39;;;;;;;67.13;42.10;;;;;;;;;;10101736;28;20090;-59
2024/01/20 17:14:38;;;;;;;64.97;43.33;;;;;;;;;;10106890;28;20090;-62
2024/01/20 17:19:37;;;;;;;54.42;37.35;;;;;;;;;;10106028;28;20082;-59
2024/01/20 17:24:37;;;;;;;42.72;33.50;;;;;;;;;;10105560;28;20079;-59
2024/01/20 17:29:36;;;;;;;115.00;76.78;;;;;;;;;;10104941;28;20483;-60
2024/01/20 17:34:34;;;;;;;76.30;54.08;;;;;;;;;;10101532;28;20090;-61
2024/01/20 17:39:36;;;;;;;43.00;33.00;;;;;;;;;;10104808;28;20086;-59
2024/01/20 17:44:36;;;;;;;39.78;27.95;;;;;;;;;;10100379;28;20082;-60
2024/01/20 17:49:35;;;;;;;90.97;64.90;;;;;;;;;;10101395;28;20082;-60
2024/01/20 17:54:43;;;;;;;29.33;24.02;;;;;;;;;;10095534;28;20149;-62
2024/01/20 17:59:43;;;;;;;35.15;27.50;;;;;;;;;;10102249;28;20081;-60
2024/01/20 18:04:41;;;;;;;223.65;135.27;;;;;;;;;;10103920;28;20069;-61
2024/01/20 18:09:39;;;;;;;63.42;44.15;;;;;;;;;;10104343;28;20082;-62
2024/01/20 18:14:40;;;;;;;33.60;24.30;;;;;;;;;;10094879;28;20154;-63
2024/01/20 18:19:40;;;;;;;43.83;31.55;;;;;;;;;;10102258;28;20069;-60
2024/01/20 18:24:39;;;;;;;30.25;22.27;;;;;;;;;;10103972;28;20074;-60
2024/01/20 18:29:38;;;;;;;55.95;34.88;;;;;;;;;;10102256;28;20071;-61
2024/01/20 18:34:37;;;;;;;206.40;142.90;;;;;;;;;;10104054;28;20585;-61
2024/01/20 18:39:37;;;;;;;114.43;68.18;;;;;;;;;;10101104;28;20078;-62
2024/01/20 18:44:35;;;;;;;77.05;56.88;;;;;;;;;;10097070;28;20086;-59
2024/01/20 18:49:33;;;;;;;30.83;21.63;;;;;;;;;;10097550;28;20141;-60
2024/01/20 18:54:32;;;;;;;24.52;19.48;;;;;;;;;;10099487;28;20370;-60
2024/01/20 18:59:32;;;;;;;25.23;21.17;;;;;;;;;;10099249;28;20528;-59
2024/01/20 19:04:31;;;;;;;39.38;29.08;;;;;;;;;;10098951;28;20085;-60
2024/01/20 19:09:30;;;;;;;88.38;59.63;;;;;;;;;;10104452;28;20097;-60
2024/01/20 19:14:28;;;;;;;41.75;30.90;;;;;;;;;;10101956;28;20075;-60
2024/01/20 19:19:28;;;;;;;35.65;26.63;;;;;;;;;;10096913;28;20079;-61
2024/01/20 19:24:27;;;;;;;37.85;25.95;;;;;;;;;;10103436;28;20525;-59
2024/01/20 19:29:25;;;;;;;29.00;23.10;;;;;;;;;;10098209;28;20070;-61
2024/01/20 19:34:24;;;;;;;25.45;20.42;;;;;;;;;;10102156;28;20082;-60
2024/01/20 19:39:23;;;;;;;27.45;20.77;;;;;;;;;;10099454;28;20082;-61
2024/01/20 19:44:22;;;;;;;49.10;32.85;;;;;;;;;;10104092;28;20075;-61
2024/01/20 19:49:22;;;;;;;51.22;34.58;;;;;;;;;;10102949;28;20077;-61
2024/01/20 19:54:21;;;;;;;39.60;29.30;;;;;;;;;;10103133;28;20484;-61
2024/01/20 19:59:21;;;;;;;49.28;37.58;;;;;;;;;;10093419;28;20062;-61
2024/01/20 20:04:19;;;;;;;32.63;26.98;;;;;;;;;;10096161;28;20077;-60
2024/01/20 20:09:19;;;;;;;34.72;27.45;;;;;;;;;;10099185;28;20461;-60
2024/01/20 20:14:22;;;;;;;30.05;23.33;;;;;;;;;;10099484;28;20098;-62
2024/01/20 20:19:22;;;;;;;31.45;23.42;;;;;;;;;;10095992;28;20074;-61
2024/01/20 20:24:21;;;;;;;44.47;26.60;;;;;;;;;;10096922;28;20112;-61
2024/01/20 20:29:20;;;;;;;32.03;22.90;;;;;;;;;;10106551;28;20090;-61
2024/01/20 20:34:19;;;;;;;49.90;33.88;;;;;;;;;;10110153;28;20082;-61
2024/01/20 20:39:19;;;;;;;46.65;29.58;;;;;;;;;;10107724;28;20066;-62
2024/01/20 20:44:17;;;;;;;54.33;34.83;;;;;;;;;;10104785;28;20075;-61
2024/01/20 20:49:15;;;;;;;44.72;27.65;;;;;;;;;;10103746;28;20074;-60
2024/01/20 20:54:14;;;;;;;52.50;39.78;;;;;;;;;;10109807;28;20520;-61
2024/01/20 20:59:14;;;;;;;103.93;58.20;;;;;;;;;;10102143;28;20141;-61
2024/01/20 21:04:12;;;;;;;29.98;21.13;;;;;;;;;;10107107;28;20474;-62
2024/01/20 21:09:11;;;;;;;34.35;22.42;;;;;;;;;;10106493;28;20061;-60
2024/01/20 21:14:09;;;;;;;33.72;24.00;;;;;;;;;;10105907;28;20070;-60
2024/01/20 21:19:09;;;;;;;114.13;72.13;;;;;;;;;;10106317;28;20097;-60
2024/01/20 21:24:08;;;;;;;34.45;26.70;;;;;;;;;;10102145;28;20075;-60
2024/01/20 21:29:07;;;;;;;44.67;32.03;;;;;;;;;;10106871;28;20083;-61
2024/01/20 21:34:05;;;;;;;122.20;61.83;;;;;;;;;;10101386;28;20078;-60
2024/01/20 21:39:05;;;;;;;49.45;37.70;;;;;;;;;;10100807;28;20142;-62
2024/01/20 21:44:05;;;;;;;31.88;24.15;;;;;;;;;;10100964;28;20071;-62
2024/01/20 21:49:03;;;;;;;33.40;24.55;;;;;;;;;;10102019;28;20059;-62
2024/01/20 21:54:02;;;;;;;39.60;32.70;;;;;;;;;;10102908;28;20078;-62
2024/01/20 21:59:03;;;;;;;39.30;27.27;;;;;;;;;;10096218;28;20073;-62
2024/01/20 22:04:01;;;;;;;40.00;30.63;;;;;;;;;;10099785;28;20074;-62
2024/01/20 22:09:01;;;;;;;84.95;58.13;;;;;;;;;;10094053;28;20501;-61
2024/01/20 22:13:59;;;;;;;44.72;30.50;;;;;;;;;;10097131;28;20625;-61
2024/01/20 22:18:59;;;;;;;57.47;35.95;;;;;;;;;;10101193;28;20078;-61
2024/01/20 22:23:59;;;;;;;46.08;33.38;;;;;;;;;;10095303;28;20093;-61
2024/01/20 22:28:57;;;;;;;36.47;27.83;;;;;;;;;;10099548;28;20073;-61
2024/01/20 22:33:57;;;;;;;29.95;20.55;;;;;;;;;;10106277;28;20278;-61
2024/01/20 22:38:56;;;;;;;23.17;19.02;;;;;;;;;;10103177;28;20165;-61
2024/01/20 22:43:55;;;;;;;63.85;38.33;;;;;;;;;;10109615;28;20074;-62
2024/01/20 22:48:53;;;;;;;32.15;23.30;;;;;;;;;;10103074;28;20519;-62
2024/01/20 22:53:51;;;;;;;27.15;20.00;;;;;;;;;;10094710;28;20086;-62
2024/01/20 22:58:51;;;;;;;27.25;19.70;;;;;;;;;;10094080;28;20495;-62
2024/01/20 23:03:49;;;;;;;28.25;20.48;;;;;;;;;;10091307;28;20070;-62
2024/01/20 23:08:51;;;;;;;33.80;24.70;;;;;;;;;;10093576;28;20078;-62
2024/01/20 23:13:49;;;;;;;29.15;21.88;;;;;;;;;;10092466;28;20078;-62
2024/01/20 23:18:49;;;;;;;26.02;18.60;;;;;;;;;;10095461;28;20095;-62
2024/01/20 23:23:47;;;;;;;23.45;16.42;;;;;;;;;;10089804;28;20112;-62
2024/01/20 23:28:45;;;;;;;17.42;13.63;;;;;;;;;;10089668;28;20496;-62
2024/01/20 23:33:43;;;;;;;14.80;11.57;;;;;;;;;;10092618;28;20078;-62
2024/01/20 23:38:43;;;;;;;11.07;9.90;;;;;;;;;;10096218;28;20067;-61
2024/01/20 23:43:42;;;;;;;12.10;9.93;;;;;;;;;;10093723;28;20075;-62
2024/01/20 23:48:40;;;;;;;14.27;10.65;;;;;;;;;;10094662;28;20480;-62
2024/01/20 23:53:38;;;;;;;13.30;11.73;;;;;;;;;;10092661;28;20539;-62
2024/01/20 23:58:38;;;;;;;14.45;11.82;;;;;;;;;;10093888;28;20089;-62
